sensor_id;sensor_type;location;lat;lon;timestamp;temperature;humidity
15705;DHT22;7952;48.396;12.806;2023-11-21T00:00:15;10.20;56.60
15705;DHT22;7952;48.396;12.806;2023-11-21T00:02:41;10.20;56.60
15705;DHT22;7952;48.396;12.806;2023-11-21T00:05:08;10.10;56.50
15705;DHT22;7952;48.396;12.806;2023-11-21T00:07:35;10.20;56.60
15705;DHT22;7952;48.396;12.806;2023-11-21T00:10:01;10.20;56.60
15705;DHT22;7952;48.396;12.806;2023-11-21T00:12:28;10.20;56.60
15705;DHT22;7952;48.396;12.806;2023-11-21T00:14:54;10.20;56.60
15705;DHT22;7952;48.396;12.806;2023-11-21T00:17:20;10.20;56.60
15705;DHT22;7952;48.396;12.806;2023-11-21T00:19:46;10.20;56.50
15705;DHT22;7952;48.396;12.806;2023-11-21T00:22:11;10.30;56.60
15705;DHT22;7952;48.396;12.806;2023-11-21T00:24:37;10.30;56.60
15705;DHT22;7952;48.396;12.806;2023-11-21T00:27:02;10.30;56.60
15705;DHT22;7952;48.396;12.806;2023-11-21T00:29:28;10.30;56.60
15705;DHT22;7952;48.396;12.806;2023-11-21T00:31:54;10.30;56.60
15705;DHT22;7952;48.396;12.806;2023-11-21T00:34:20;10.30;56.60
15705;DHT22;7952;48.396;12.806;2023-11-21T00:36:45;10.30;56.60
15705;DHT22;7952;48.396;12.806;2023-11-21T00:39:11;10.30;56.60
15705;DHT22;7952;48.396;12.806;2023-11-21T00:41:37;10.30;56.60
15705;DHT22;7952;48.396;12.806;2023-11-21T00:44:03;10.30;56.60
15705;DHT22;7952;48.396;12.806;2023-11-21T00:46:29;10.30;56.60
15705;DHT22;7952;48.396;12.806;2023-11-21T00:48:55;10.30;56.70
15705;DHT22;7952;48.396;12.806;2023-11-21T00:51:21;10.30;56.60
15705;DHT22;7952;48.396;12.806;2023-11-21T00:53:47;10.30;56.70
15705;DHT22;7952;48.396;12.806;2023-11-21T00:56:13;10.30;57.30
15705;DHT22;7952;48.396;12.806;2023-11-21T00:58:40;10.20;56.60
15705;DHT22;7952;48.396;12.806;2023-11-21T01:01:12;10.20;56.60
15705;DHT22;7952;48.396;12.806;2023-11-21T01:03:37;10.20;56.70
15705;DHT22;7952;48.396;12.806;2023-11-21T01:06:03;10.20;56.70
15705;DHT22;7952;48.396;12.806;2023-11-21T01:08:32;10.20;56.70
15705;DHT22;7952;48.396;12.806;2023-11-21T01:10:58;10.10;56.70
15705;DHT22;7952;48.396;12.806;2023-11-21T01:13:23;10.10;56.70
15705;DHT22;7952;48.396;12.806;2023-11-21T01:15:49;10.10;56.70
15705;DHT22;7952;48.396;12.806;2023-11-21T01:18:15;10.10;56.80
15705;DHT22;7952;48.396;12.806;2023-11-21T01:20:40;10.10;56.80
15705;DHT22;7952;48.396;12.806;2023-11-21T01:23:06;10.10;56.80
15705;DHT22;7952;48.396;12.806;2023-11-21T01:25:31;10.10;56.80
15705;DHT22;7952;48.396;12.806;2023-11-21T01:27:57;10.10;56.80
15705;DHT22;7952;48.396;12.806;2023-11-21T01:30:22;10.20;56.90
15705;DHT22;7952;48.396;12.806;2023-11-21T01:32:48;10.20;56.80
15705;DHT22;7952;48.396;12.806;2023-11-21T01:35:13;10.20;56.80
15705;DHT22;7952;48.396;12.806;2023-11-21T01:37:39;10.20;56.70
15705;DHT22;7952;48.396;12.806;2023-11-21T01:40:05;10.20;56.70
15705;DHT22;7952;48.396;12.806;2023-11-21T01:42:35;10.20;56.70
15705;DHT22;7952;48.396;12.806;2023-11-21T01:45:01;10.20;56.70
15705;DHT22;7952;48.396;12.806;2023-11-21T01:47:28;10.20;56.70
15705;DHT22;7952;48.396;12.806;2023-11-21T01:49:55;10.20;56.70
15705;DHT22;7952;48.396;12.806;2023-11-21T01:52:21;10.20;56.70
15705;DHT22;7952;48.396;12.806;2023-11-21T01:54:47;10.20;57.10
15705;DHT22;7952;48.396;12.806;2023-11-21T01:57:13;10.20;56.80
15705;DHT22;7952;48.396;12.806;2023-11-21T01:59:41;10.10;56.70
15705;DHT22;7952;48.396;12.806;2023-11-21T02:02:07;10.10;56.80
15705;DHT22;7952;48.396;12.806;2023-11-21T02:04:34;10.10;56.80
15705;DHT22;7952;48.396;12.806;2023-11-21T02:07:00;10.10;56.80
15705;DHT22;7952;48.396;12.806;2023-11-21T02:09:27;10.10;56.80
15705;DHT22;7952;48.396;12.806;2023-11-21T02:11:53;10.10;56.80
15705;DHT22;7952;48.396;12.806;2023-11-21T02:14:20;10.10;56.80
15705;DHT22;7952;48.396;12.806;2023-11-21T02:16:50;10.10;56.80
15705;DHT22;7952;48.396;12.806;2023-11-21T02:19:21;10.20;56.90
15705;DHT22;7952;48.396;12.806;2023-11-21T02:21:53;10.20;56.90
15705;DHT22;7952;48.396;12.806;2023-11-21T02:24:23;10.20;56.90
15705;DHT22;7952;48.396;12.806;2023-11-21T02:26:49;10.20;56.90
15705;DHT22;7952;48.396;12.806;2023-11-21T02:29:18;10.20;56.90
15705;DHT22;7952;48.396;12.806;2023-11-21T02:31:47;10.20;56.90
15705;DHT22;7952;48.396;12.806;2023-11-21T02:34:14;10.30;56.90
15705;DHT22;7952;48.396;12.806;2023-11-21T02:36:40;10.20;56.80
15705;DHT22;7952;48.396;12.806;2023-11-21T02:39:06;10.30;56.90
15705;DHT22;7952;48.396;12.806;2023-11-21T02:41:33;10.30;56.90
15705;DHT22;7952;48.396;12.806;2023-11-21T02:44:00;10.30;56.80
15705;DHT22;7952;48.396;12.806;2023-11-21T02:46:26;10.30;56.80
15705;DHT22;7952;48.396;12.806;2023-11-21T02:48:51;10.30;56.80
15705;DHT22;7952;48.396;12.806;2023-11-21T02:51:19;10.30;56.80
15705;DHT22;7952;48.396;12.806;2023-11-21T02:53:44;10.40;56.90
15705;DHT22;7952;48.396;12.806;2023-11-21T02:56:12;10.30;56.80
15705;DHT22;7952;48.396;12.806;2023-11-21T02:58:37;10.40;56.90
15705;DHT22;7952;48.396;12.806;2023-11-21T03:01:03;10.40;56.80
15705;DHT22;7952;48.396;12.806;2023-11-21T03:03:31;10.40;56.80
15705;DHT22;7952;48.396;12.806;2023-11-21T03:05:56;10.40;56.80
15705;DHT22;7952;48.396;12.806;2023-11-21T03:08:22;10.40;56.80
15705;DHT22;7952;48.396;12.806;2023-11-21T03:10:47;10.40;56.80
15705;DHT22;7952;48.396;12.806;2023-11-21T03:13:13;10.40;56.80
15705;DHT22;7952;48.396;12.806;2023-11-21T03:15:38;10.40;56.80
15705;DHT22;7952;48.396;12.806;2023-11-21T03:18:04;10.40;56.80
15705;DHT22;7952;48.396;12.806;2023-11-21T03:20:30;10.40;56.80
15705;DHT22;7952;48.396;12.806;2023-11-21T03:22:56;10.40;56.80
15705;DHT22;7952;48.396;12.806;2023-11-21T03:25:21;10.40;56.80
15705;DHT22;7952;48.396;12.806;2023-11-21T03:27:49;10.40;56.90
15705;DHT22;7952;48.396;12.806;2023-11-21T03:30:15;10.40;56.90
15705;DHT22;7952;48.396;12.806;2023-11-21T03:32:40;10.40;56.90
15705;DHT22;7952;48.396;12.806;2023-11-21T03:35:06;10.40;57.00
15705;DHT22;7952;48.396;12.806;2023-11-21T03:37:32;10.40;56.90
15705;DHT22;7952;48.396;12.806;2023-11-21T03:39:58;10.40;56.90
15705;DHT22;7952;48.396;12.806;2023-11-21T03:42:23;10.40;56.90
15705;DHT22;7952;48.396;12.806;2023-11-21T03:44:51;10.40;56.90
15705;DHT22;7952;48.396;12.806;2023-11-21T03:47:17;10.40;56.90
15705;DHT22;7952;48.396;12.806;2023-11-21T03:49:44;10.40;56.90
15705;DHT22;7952;48.396;12.806;2023-11-21T03:52:10;10.40;57.00
15705;DHT22;7952;48.396;12.806;2023-11-21T03:54:37;10.40;57.00
15705;DHT22;7952;48.396;12.806;2023-11-21T03:57:03;10.40;56.90
15705;DHT22;7952;48.396;12.806;2023-11-21T03:59:28;10.40;57.00
15705;DHT22;7952;48.396;12.806;2023-11-21T04:01:56;10.40;57.00
15705;DHT22;7952;48.396;12.806;2023-11-21T04:04:22;10.40;57.00
15705;DHT22;7952;48.396;12.806;2023-11-21T04:06:48;10.40;57.00
15705;DHT22;7952;48.396;12.806;2023-11-21T04:09:13;10.40;57.00
15705;DHT22;7952;48.396;12.806;2023-11-21T04:11:39;10.40;57.00
15705;DHT22;7952;48.396;12.806;2023-11-21T04:14:05;10.40;57.00
15705;DHT22;7952;48.396;12.806;2023-11-21T04:16:30;10.40;57.10
15705;DHT22;7952;48.396;12.806;2023-11-21T04:18:56;10.40;57.10
15705;DHT22;7952;48.396;12.806;2023-11-21T04:21:22;10.40;57.10
15705;DHT22;7952;48.396;12.806;2023-11-21T04:23:49;10.40;57.00
15705;DHT22;7952;48.396;12.806;2023-11-21T04:26:14;10.40;57.10
15705;DHT22;7952;48.396;12.806;2023-11-21T04:28:40;10.40;57.10
15705;DHT22;7952;48.396;12.806;2023-11-21T04:31:06;10.40;57.10
15705;DHT22;7952;48.396;12.806;2023-11-21T04:33:32;10.40;57.10
15705;DHT22;7952;48.396;12.806;2023-11-21T04:35:58;10.40;57.10
15705;DHT22;7952;48.396;12.806;2023-11-21T04:38:23;10.40;57.10
15705;DHT22;7952;48.396;12.806;2023-11-21T04:40:49;10.40;57.10
15705;DHT22;7952;48.396;12.806;2023-11-21T04:43:15;10.30;57.00
15705;DHT22;7952;48.396;12.806;2023-11-21T04:45:40;10.30;57.10
15705;DHT22;7952;48.396;12.806;2023-11-21T04:48:07;10.30;57.10
15705;DHT22;7952;48.396;12.806;2023-11-21T04:50:33;10.30;57.10
15705;DHT22;7952;48.396;12.806;2023-11-21T04:52:59;10.30;57.10
15705;DHT22;7952;48.396;12.806;2023-11-21T04:55:25;10.30;57.30
15705;DHT22;7952;48.396;12.806;2023-11-21T04:57:53;10.30;57.10
15705;DHT22;7952;48.396;12.806;2023-11-21T05:00:19;10.30;57.10
15705;DHT22;7952;48.396;12.806;2023-11-21T05:02:46;10.30;57.20
15705;DHT22;7952;48.396;12.806;2023-11-21T05:05:12;10.30;57.10
15705;DHT22;7952;48.396;12.806;2023-11-21T05:07:39;10.30;57.20
15705;DHT22;7952;48.396;12.806;2023-11-21T05:10:05;10.20;57.10
15705;DHT22;7952;48.396;12.806;2023-11-21T05:12:37;10.20;57.10
15705;DHT22;7952;48.396;12.806;2023-11-21T05:15:07;10.20;57.20
15705;DHT22;7952;48.396;12.806;2023-11-21T05:17:35;10.20;57.20
15705;DHT22;7952;48.396;12.806;2023-11-21T05:20:01;10.20;57.30
15705;DHT22;7952;48.396;12.806;2023-11-21T05:22:29;10.20;57.30
15705;DHT22;7952;48.396;12.806;2023-11-21T05:24:55;10.20;57.30
15705;DHT22;7952;48.396;12.806;2023-11-21T05:27:20;10.20;57.30
15705;DHT22;7952;48.396;12.806;2023-11-21T05:29:46;10.20;57.30
15705;DHT22;7952;48.396;12.806;2023-11-21T05:32:11;10.20;57.30
15705;DHT22;7952;48.396;12.806;2023-11-21T05:34:37;10.10;57.20
15705;DHT22;7952;48.396;12.806;2023-11-21T05:37:03;10.20;57.30
15705;DHT22;7952;48.396;12.806;2023-11-21T05:39:30;10.20;57.30
15705;DHT22;7952;48.396;12.806;2023-11-21T05:41:57;10.20;57.30
15705;DHT22;7952;48.396;12.806;2023-11-21T05:44:23;10.10;57.30
15705;DHT22;7952;48.396;12.806;2023-11-21T05:46:49;10.20;57.40
15705;DHT22;7952;48.396;12.806;2023-11-21T05:49:15;10.10;57.30
15705;DHT22;7952;48.396;12.806;2023-11-21T05:51:42;10.20;57.40
15705;DHT22;7952;48.396;12.806;2023-11-21T05:54:07;10.20;57.30
15705;DHT22;7952;48.396;12.806;2023-11-21T05:56:33;10.20;57.40
15705;DHT22;7952;48.396;12.806;2023-11-21T05:58:59;10.20;57.40
15705;DHT22;7952;48.396;12.806;2023-11-21T06:01:25;10.20;57.40
15705;DHT22;7952;48.396;12.806;2023-11-21T06:03:54;10.20;57.40
15705;DHT22;7952;48.396;12.806;2023-11-21T06:06:20;10.20;57.40
15705;DHT22;7952;48.396;12.806;2023-11-21T06:08:50;10.20;58.00
15705;DHT22;7952;48.396;12.806;2023-11-21T06:11:16;10.20;57.40
15705;DHT22;7952;48.396;12.806;2023-11-21T06:13:41;10.20;57.40
15705;DHT22;7952;48.396;12.806;2023-11-21T06:16:07;10.20;57.40
15705;DHT22;7952;48.396;12.806;2023-11-21T06:18:33;10.20;57.40
15705;DHT22;7952;48.396;12.806;2023-11-21T06:20:58;10.20;57.40
15705;DHT22;7952;48.396;12.806;2023-11-21T06:23:26;10.20;57.40
15705;DHT22;7952;48.396;12.806;2023-11-21T06:25:51;10.20;57.40
15705;DHT22;7952;48.396;12.806;2023-11-21T06:28:17;10.30;57.50
15705;DHT22;7952;48.396;12.806;2023-11-21T06:30:43;10.20;57.40
15705;DHT22;7952;48.396;12.806;2023-11-21T06:33:10;10.30;57.50
15705;DHT22;7952;48.396;12.806;2023-11-21T06:35:36;10.30;57.50
15705;DHT22;7952;48.396;12.806;2023-11-21T06:38:02;10.30;57.50
15705;DHT22;7952;48.396;12.806;2023-11-21T06:40:28;10.30;57.50
15705;DHT22;7952;48.396;12.806;2023-11-21T06:42:53;10.30;57.50
15705;DHT22;7952;48.396;12.806;2023-11-21T06:45:19;10.30;57.50
15705;DHT22;7952;48.396;12.806;2023-11-21T06:47:45;10.30;57.50
15705;DHT22;7952;48.396;12.806;2023-11-21T06:50:11;10.30;57.50
15705;DHT22;7952;48.396;12.806;2023-11-21T06:52:36;10.30;57.50
15705;DHT22;7952;48.396;12.806;2023-11-21T06:55:02;10.30;57.50
15705;DHT22;7952;48.396;12.806;2023-11-21T06:57:28;10.40;57.60
15705;DHT22;7952;48.396;12.806;2023-11-21T06:59:54;10.40;57.60
15705;DHT22;7952;48.396;12.806;2023-11-21T07:02:20;10.40;57.60
15705;DHT22;7952;48.396;12.806;2023-11-21T07:04:46;10.40;57.60
15705;DHT22;7952;48.396;12.806;2023-11-21T07:07:12;10.40;57.60
15705;DHT22;7952;48.396;12.806;2023-11-21T07:09:38;10.50;57.70
15705;DHT22;7952;48.396;12.806;2023-11-21T07:12:04;10.50;57.70
15705;DHT22;7952;48.396;12.806;2023-11-21T07:14:33;10.50;57.70
15705;DHT22;7952;48.396;12.806;2023-11-21T07:16:59;10.50;57.60
15705;DHT22;7952;48.396;12.806;2023-11-21T07:19:24;10.60;57.60
15705;DHT22;7952;48.396;12.806;2023-11-21T07:21:50;10.70;57.70
15705;DHT22;7952;48.396;12.806;2023-11-21T07:24:25;10.70;57.80
15705;DHT22;7952;48.396;12.806;2023-11-21T07:26:51;11.00;58.40
15705;DHT22;7952;48.396;12.806;2023-11-21T07:43:24;11.60;57.60
15705;DHT22;7952;48.396;12.806;2023-11-21T07:48:55;11.70;57.70
15705;DHT22;7952;48.396;12.806;2023-11-21T07:51:21;11.70;57.60
15705;DHT22;7952;48.396;12.806;2023-11-21T07:53:47;11.70;57.60
15705;DHT22;7952;48.396;12.806;2023-11-21T07:56:22;11.70;57.60
15705;DHT22;7952;48.396;12.806;2023-11-21T07:58:48;11.70;57.60
15705;DHT22;7952;48.396;12.806;2023-11-21T08:01:15;11.60;57.50
15705;DHT22;7952;48.396;12.806;2023-11-21T08:03:41;11.60;57.60
15705;DHT22;7952;48.396;12.806;2023-11-21T08:06:07;11.60;57.60
15705;DHT22;7952;48.396;12.806;2023-11-21T08:08:33;11.60;57.60
15705;DHT22;7952;48.396;12.806;2023-11-21T08:10:58;11.70;57.70
15705;DHT22;7952;48.396;12.806;2023-11-21T08:13:42;11.70;57.80
15705;DHT22;7952;48.396;12.806;2023-11-21T08:16:08;11.70;57.80
15705;DHT22;7952;48.396;12.806;2023-11-21T08:18:33;11.80;57.80
15705;DHT22;7952;48.396;12.806;2023-11-21T08:20:59;11.80;57.90
15705;DHT22;7952;48.396;12.806;2023-11-21T08:23:25;11.90;57.90
15705;DHT22;7952;48.396;12.806;2023-11-21T08:25:53;11.90;57.80
15705;DHT22;7952;48.396;12.806;2023-11-21T08:28:19;11.90;57.70
15705;DHT22;7952;48.396;12.806;2023-11-21T08:30:54;12.00;57.70
15705;DHT22;7952;48.396;12.806;2023-11-21T08:33:26;12.00;57.70
15705;DHT22;7952;48.396;12.806;2023-11-21T08:35:51;12.00;57.60
15705;DHT22;7952;48.396;12.806;2023-11-21T08:38:17;12.00;57.60
15705;DHT22;7952;48.396;12.806;2023-11-21T08:40:58;12.00;57.60
15705;DHT22;7952;48.396;12.806;2023-11-21T08:43:24;11.90;57.60
15705;DHT22;7952;48.396;12.806;2023-11-21T08:45:50;11.90;57.70
15705;DHT22;7952;48.396;12.806;2023-11-21T08:48:17;11.90;57.70
15705;DHT22;7952;48.396;12.806;2023-11-21T08:50:42;11.80;57.60
15705;DHT22;7952;48.396;12.806;2023-11-21T08:53:09;11.80;57.70
15705;DHT22;7952;48.396;12.806;2023-11-21T08:55:36;11.80;57.70
15705;DHT22;7952;48.396;12.806;2023-11-21T08:58:02;11.80;57.80
15705;DHT22;7952;48.396;12.806;2023-11-21T09:00:31;11.80;57.80
15705;DHT22;7952;48.396;12.806;2023-11-21T09:02:57;11.80;57.90
15705;DHT22;7952;48.396;12.806;2023-11-21T09:05:26;11.80;57.80
15705;DHT22;7952;48.396;12.806;2023-11-21T09:07:52;11.80;57.90
15705;DHT22;7952;48.396;12.806;2023-11-21T09:10:17;11.80;57.90
15705;DHT22;7952;48.396;12.806;2023-11-21T09:12:43;11.80;57.90
15705;DHT22;7952;48.396;12.806;2023-11-21T09:15:09;11.80;57.90
15705;DHT22;7952;48.396;12.806;2023-11-21T09:17:38;11.90;58.00
15705;DHT22;7952;48.396;12.806;2023-11-21T09:20:05;11.90;57.90
15705;DHT22;7952;48.396;12.806;2023-11-21T09:22:31;11.90;57.90
15705;DHT22;7952;48.396;12.806;2023-11-21T09:24:57;11.90;57.90
15705;DHT22;7952;48.396;12.806;2023-11-21T09:27:23;11.90;57.90
15705;DHT22;7952;48.396;12.806;2023-11-21T09:29:51;11.90;57.90
15705;DHT22;7952;48.396;12.806;2023-11-21T09:32:18;11.90;57.90
15705;DHT22;7952;48.396;12.806;2023-11-21T09:34:44;11.90;57.90
15705;DHT22;7952;48.396;12.806;2023-11-21T09:37:10;11.90;57.90
15705;DHT22;7952;48.396;12.806;2023-11-21T09:39:36;11.90;57.90
15705;DHT22;7952;48.396;12.806;2023-11-21T09:42:13;11.90;57.90
15705;DHT22;7952;48.396;12.806;2023-11-21T09:44:51;12.00;58.00
15705;DHT22;7952;48.396;12.806;2023-11-21T09:47:21;12.00;58.10
15705;DHT22;7952;48.396;12.806;2023-11-21T09:49:47;12.00;58.00
15705;DHT22;7952;48.396;12.806;2023-11-21T09:52:28;12.00;58.00
15705;DHT22;7952;48.396;12.806;2023-11-21T09:54:55;12.10;58.10
15705;DHT22;7952;48.396;12.806;2023-11-21T09:57:25;12.10;58.10
15705;DHT22;7952;48.396;12.806;2023-11-21T09:59:51;12.20;58.20
15705;DHT22;7952;48.396;12.806;2023-11-21T10:02:23;12.20;58.20
15705;DHT22;7952;48.396;12.806;2023-11-21T10:04:51;12.30;58.10
15705;DHT22;7952;48.396;12.806;2023-11-21T10:07:18;12.30;58.10
15705;DHT22;7952;48.396;12.806;2023-11-21T10:09:45;12.40;58.20
15705;DHT22;7952;48.396;12.806;2023-11-21T10:12:12;12.40;58.10
15705;DHT22;7952;48.396;12.806;2023-11-21T10:14:41;12.50;58.10
15705;DHT22;7952;48.396;12.806;2023-11-21T10:20:13;12.50;57.90
15705;DHT22;7952;48.396;12.806;2023-11-21T10:22:41;12.50;57.80
15705;DHT22;7952;48.396;12.806;2023-11-21T10:25:08;12.50;57.90
15705;DHT22;7952;48.396;12.806;2023-11-21T10:27:34;12.50;57.90
15705;DHT22;7952;48.396;12.806;2023-11-21T10:30:02;12.50;58.00
15705;DHT22;7952;48.396;12.806;2023-11-21T10:32:29;12.50;57.90
15705;DHT22;7952;48.396;12.806;2023-11-21T10:34:59;12.50;58.00
15705;DHT22;7952;48.396;12.806;2023-11-21T10:37:32;12.50;58.00
15705;DHT22;7952;48.396;12.806;2023-11-21T10:40:01;12.50;58.00
15705;DHT22;7952;48.396;12.806;2023-11-21T10:42:27;12.50;58.00
15705;DHT22;7952;48.396;12.806;2023-11-21T10:44:53;12.50;58.00
15705;DHT22;7952;48.396;12.806;2023-11-21T10:47:19;12.50;58.10
15705;DHT22;7952;48.396;12.806;2023-11-21T10:49:48;12.50;58.10
15705;DHT22;7952;48.396;12.806;2023-11-21T10:52:16;12.50;58.10
15705;DHT22;7952;48.396;12.806;2023-11-21T10:54:44;12.50;58.00
15705;DHT22;7952;48.396;12.806;2023-11-21T10:57:10;12.50;58.10
15705;DHT22;7952;48.396;12.806;2023-11-21T10:59:47;12.50;58.00
15705;DHT22;7952;48.396;12.806;2023-11-21T11:02:25;12.60;58.20
15705;DHT22;7952;48.396;12.806;2023-11-21T11:04:54;12.60;58.20
15705;DHT22;7952;48.396;12.806;2023-11-21T11:07:26;12.60;58.20
15705;DHT22;7952;48.396;12.806;2023-11-21T11:09:53;12.60;58.10
15705;DHT22;7952;48.396;12.806;2023-11-21T11:12:32;12.70;58.20
15705;DHT22;7952;48.396;12.806;2023-11-21T11:14:58;12.70;58.20
15705;DHT22;7952;48.396;12.806;2023-11-21T11:17:58;12.70;58.20
15705;DHT22;7952;48.396;12.806;2023-11-21T11:20:31;12.80;58.30
15705;DHT22;7952;48.396;12.806;2023-11-21T11:29:41;12.90;58.10
15705;DHT22;7952;48.396;12.806;2023-11-21T11:35:52;12.90;58.00
15705;DHT22;7952;48.396;12.806;2023-11-21T11:38:58;12.90;58.00
15705;DHT22;7952;48.396;12.806;2023-11-21T11:42:19;12.80;58.00
15705;DHT22;7952;48.396;12.806;2023-11-21T11:44:46;12.80;58.10
15705;DHT22;7952;48.396;12.806;2023-11-21T11:47:25;12.70;58.10
15705;DHT22;7952;48.396;12.806;2023-11-21T11:50:30;12.70;58.20
15705;DHT22;7952;48.396;12.806;2023-11-21T11:53:17;12.60;58.20
15705;DHT22;7952;48.396;12.806;2023-11-21T11:55:43;12.60;58.20
15705;DHT22;7952;48.396;12.806;2023-11-21T11:58:10;12.60;58.30
15705;DHT22;7952;48.396;12.806;2023-11-21T12:00:37;12.50;58.30
15705;DHT22;7952;48.396;12.806;2023-11-21T12:06:34;12.60;58.50
15705;DHT22;7952;48.396;12.806;2023-11-21T12:09:03;12.60;58.50
15705;DHT22;7952;48.396;12.806;2023-11-21T12:11:40;12.60;58.50
15705;DHT22;7952;48.396;12.806;2023-11-21T12:14:27;12.60;58.40
15705;DHT22;7952;48.396;12.806;2023-11-21T12:16:54;12.70;58.50
15705;DHT22;7952;48.396;12.806;2023-11-21T12:19:49;12.70;58.40
15705;DHT22;7952;48.396;12.806;2023-11-21T12:22:17;12.70;58.40
15705;DHT22;7952;48.396;12.806;2023-11-21T12:24:55;12.70;58.30
15705;DHT22;7952;48.396;12.806;2023-11-21T12:27:21;12.70;58.30
15705;DHT22;7952;48.396;12.806;2023-11-21T12:30:09;12.70;58.30
15705;DHT22;7952;48.396;12.806;2023-11-21T12:36:00;12.70;58.30
15705;DHT22;7952;48.396;12.806;2023-11-21T12:38:34;12.70;58.40
15705;DHT22;7952;48.396;12.806;2023-11-21T12:41:06;12.70;58.40
15705;DHT22;7952;48.396;12.806;2023-11-21T12:43:32;12.70;58.40
15705;DHT22;7952;48.396;12.806;2023-11-21T12:49:11;12.70;58.40
15705;DHT22;7952;48.396;12.806;2023-11-21T12:55:02;12.80;58.50
15705;DHT22;7952;48.396;12.806;2023-11-21T12:57:31;12.80;58.40
15705;DHT22;7952;48.396;12.806;2023-11-21T13:03:05;12.80;58.40
15705;DHT22;7952;48.396;12.806;2023-11-21T13:08:51;12.70;58.30
15705;DHT22;7952;48.396;12.806;2023-11-21T13:11:40;12.70;58.40
15705;DHT22;7952;48.396;12.806;2023-11-21T13:14:16;12.60;58.30
15705;DHT22;7952;48.396;12.806;2023-11-21T13:16:53;12.60;58.40
15705;DHT22;7952;48.396;12.806;2023-11-21T13:19:19;12.60;58.40
15705;DHT22;7952;48.396;12.806;2023-11-21T13:21:47;12.60;58.50
15705;DHT22;7952;48.396;12.806;2023-11-21T13:24:41;12.60;58.40
15705;DHT22;7952;48.396;12.806;2023-11-21T13:27:06;12.50;58.30
15705;DHT22;7952;48.396;12.806;2023-11-21T13:29:49;12.50;58.40
15705;DHT22;7952;48.396;12.806;2023-11-21T13:32:18;12.50;58.40
15705;DHT22;7952;48.396;12.806;2023-11-21T13:34:47;12.40;58.40
15705;DHT22;7952;48.396;12.806;2023-11-21T13:37:13;12.40;58.40
15705;DHT22;7952;48.396;12.806;2023-11-21T13:39:56;12.40;58.50
15705;DHT22;7952;48.396;12.806;2023-11-21T13:42:32;12.40;58.40
15705;DHT22;7952;48.396;12.806;2023-11-21T13:44:57;12.40;58.40
15705;DHT22;7952;48.396;12.806;2023-11-21T13:47:23;12.40;58.40
15705;DHT22;7952;48.396;12.806;2023-11-21T13:49:54;12.40;58.40
15705;DHT22;7952;48.396;12.806;2023-11-21T13:52:20;12.30;58.30
15705;DHT22;7952;48.396;12.806;2023-11-21T13:55:00;12.30;58.30
15705;DHT22;7952;48.396;12.806;2023-11-21T13:57:31;12.30;58.40
15705;DHT22;7952;48.396;12.806;2023-11-21T13:59:58;12.30;58.50
15705;DHT22;7952;48.396;12.806;2023-11-21T14:02:25;12.30;58.50
15705;DHT22;7952;48.396;12.806;2023-11-21T14:04:58;12.30;58.50
15705;DHT22;7952;48.396;12.806;2023-11-21T14:07:26;12.30;58.60
15705;DHT22;7952;48.396;12.806;2023-11-21T14:10:02;12.20;58.50
15705;DHT22;7952;48.396;12.806;2023-11-21T14:12:29;12.20;58.50
15705;DHT22;7952;48.396;12.806;2023-11-21T14:14:59;12.20;58.50
15705;DHT22;7952;48.396;12.806;2023-11-21T14:17:25;12.20;58.50
15705;DHT22;7952;48.396;12.806;2023-11-21T14:19:51;12.20;58.50
15705;DHT22;7952;48.396;12.806;2023-11-21T14:22:16;12.20;58.50
15705;DHT22;7952;48.396;12.806;2023-11-21T14:24:45;12.20;58.50
15705;DHT22;7952;48.396;12.806;2023-11-21T14:27:13;12.20;58.50
15705;DHT22;7952;48.396;12.806;2023-11-21T14:29:40;12.20;58.60
15705;DHT22;7952;48.396;12.806;2023-11-21T14:32:09;12.20;58.50
15705;DHT22;7952;48.396;12.806;2023-11-21T14:34:34;12.20;58.60
15705;DHT22;7952;48.396;12.806;2023-11-21T14:37:00;12.20;58.60
15705;DHT22;7952;48.396;12.806;2023-11-21T14:39:28;12.20;58.60
15705;DHT22;7952;48.396;12.806;2023-11-21T14:41:55;12.10;58.50
15705;DHT22;7952;48.396;12.806;2023-11-21T14:44:26;12.10;58.50
15705;DHT22;7952;48.396;12.806;2023-11-21T14:46:54;12.10;58.50
15705;DHT22;7952;48.396;12.806;2023-11-21T14:49:22;12.10;58.50
15705;DHT22;7952;48.396;12.806;2023-11-21T14:51:53;12.10;58.50
15705;DHT22;7952;48.396;12.806;2023-11-21T14:54:27;12.10;58.60
15705;DHT22;7952;48.396;12.806;2023-11-21T14:57:12;12.10;58.60
15705;DHT22;7952;48.396;12.806;2023-11-21T14:59:44;12.00;58.50
15705;DHT22;7952;48.396;12.806;2023-11-21T15:02:23;12.00;58.50
15705;DHT22;7952;48.396;12.806;2023-11-21T15:05:09;12.00;58.60
15705;DHT22;7952;48.396;12.806;2023-11-21T15:07:40;12.00;58.60
15705;DHT22;7952;48.396;12.806;2023-11-21T15:10:07;11.90;58.50
15705;DHT22;7952;48.396;12.806;2023-11-21T15:12:38;11.90;58.60
15705;DHT22;7952;48.396;12.806;2023-11-21T15:15:05;11.90;58.60
15705;DHT22;7952;48.396;12.806;2023-11-21T15:17:35;11.80;58.50
15705;DHT22;7952;48.396;12.806;2023-11-21T15:20:02;11.80;58.60
15705;DHT22;7952;48.396;12.806;2023-11-21T15:22:29;11.80;58.60
15705;DHT22;7952;48.396;12.806;2023-11-21T15:24:55;11.80;58.70
15705;DHT22;7952;48.396;12.806;2023-11-21T15:27:21;11.80;58.70
15705;DHT22;7952;48.396;12.806;2023-11-21T15:29:47;11.70;58.60
15705;DHT22;7952;48.396;12.806;2023-11-21T15:32:15;11.70;58.60
15705;DHT22;7952;48.396;12.806;2023-11-21T15:34:41;11.70;58.70
15705;DHT22;7952;48.396;12.806;2023-11-21T15:37:07;11.60;58.60
15705;DHT22;7952;48.396;12.806;2023-11-21T15:39:37;11.70;58.70
15705;DHT22;7952;48.396;12.806;2023-11-21T15:42:04;11.60;58.70
15705;DHT22;7952;48.396;12.806;2023-11-21T15:44:30;11.60;58.70
15705;DHT22;7952;48.396;12.806;2023-11-21T15:46:58;11.60;58.70
15705;DHT22;7952;48.396;12.806;2023-11-21T15:49:24;11.60;58.80
15705;DHT22;7952;48.396;12.806;2023-11-21T15:51:52;11.50;58.70
15705;DHT22;7952;48.396;12.806;2023-11-21T15:54:19;11.50;58.70
15705;DHT22;7952;48.396;12.806;2023-11-21T15:56:47;11.50;58.70
15705;DHT22;7952;48.396;12.806;2023-11-21T15:59:30;11.50;59.30
15705;DHT22;7952;48.396;12.806;2023-11-21T16:02:39;11.50;58.70
15705;DHT22;7952;48.396;12.806;2023-11-21T16:08:42;11.50;58.70
15705;DHT22;7952;48.396;12.806;2023-11-21T16:21:29;11.40;58.80
15705;DHT22;7952;48.396;12.806;2023-11-21T16:23:58;11.40;58.80
15705;DHT22;7952;48.396;12.806;2023-11-21T16:26:24;11.40;58.80
15705;DHT22;7952;48.396;12.806;2023-11-21T16:32:14;11.40;58.80
15705;DHT22;7952;48.396;12.806;2023-11-21T16:48:11;11.40;58.90
15705;DHT22;7952;48.396;12.806;2023-11-21T16:54:51;11.30;58.80
15705;DHT22;7952;48.396;12.806;2023-11-21T16:57:16;11.30;58.80
15705;DHT22;7952;48.396;12.806;2023-11-21T16:59:42;11.30;58.80
15705;DHT22;7952;48.396;12.806;2023-11-21T17:02:08;11.30;58.80